createdAt,value
2023-05-02T00:01:11.048Z,32.25
2023-05-02T00:06:19.287Z,33.75
2023-05-02T00:16:30.636Z,34.33
2023-05-02T00:21:36.231Z,32.33
2023-05-02T00:26:42.002Z,35.00
2023-05-02T00:31:49.315Z,34.25
2023-05-02T00:36:54.818Z,47.50
2023-05-02T00:42:03.416Z,40.00
2023-05-02T00:47:10.161Z,35.00
2023-05-02T00:52:15.837Z,28.25
2023-05-02T00:57:21.341Z,31.00
2023-05-02T01:03:00.719Z,37.67
2023-05-02T01:13:28.474Z,32.33
2023-05-02T01:18:38.352Z,35.00
2023-05-02T01:24:07.785Z,33.75
2023-05-02T01:34:23.460Z,33.33
2023-05-02T01:39:29.367Z,34.50
2023-05-02T01:44:37.219Z,30.33
2023-05-02T01:49:45.004Z,34.75
2023-05-02T01:54:52.466Z,35.67
2023-05-02T02:00:02.153Z,37.33
2023-05-02T02:15:59.880Z,27.00
2023-05-02T02:21:08.382Z,27.67
2023-05-02T02:26:15.884Z,29.33
2023-05-02T02:31:20.976Z,28.75
2023-05-02T02:36:50.066Z,34.75
2023-05-02T02:42:42.257Z,31.50
2023-05-02T02:48:08.714Z,31.75
2023-05-02T02:53:29.775Z,29.00
2023-05-02T02:58:55.602Z,26.00
2023-05-02T03:04:00.995Z,29.33
2023-05-02T03:09:05.792Z,32.50
2023-05-02T03:14:12.043Z,29.25
2023-05-02T03:19:17.399Z,29.50
2023-05-02T03:24:23.393Z,29.00
2023-05-02T03:29:30.812Z,30.33
2023-05-02T03:34:36.110Z,30.00
2023-05-02T03:39:44.312Z,29.25
2023-05-02T03:44:49.492Z,30.25
2023-05-02T03:49:54.704Z,26.33
2023-05-02T03:54:59.944Z,29.00
2023-05-02T04:00:07.212Z,27.67
2023-05-02T04:05:23.899Z,33.33
2023-05-02T04:10:29.218Z,33.33
2023-05-02T04:15:38.083Z,28.75
2023-05-02T04:20:47.437Z,31.75
2023-05-02T04:25:55.817Z,31.75
2023-05-02T04:31:08.780Z,34.00
2023-05-02T04:36:15.559Z,32.50
2023-05-02T04:41:23.345Z,29.67
2023-05-02T04:46:35.006Z,32.00
2023-05-02T04:51:39.986Z,25.75
2023-05-02T04:56:45.583Z,27.00
2023-05-02T05:01:51.706Z,27.00
2023-05-02T05:06:57.143Z,30.00
2023-05-02T05:12:04.894Z,27.33
2023-05-02T05:17:12.447Z,30.00
2023-05-02T05:22:18.347Z,24.75
2023-05-02T05:27:24.438Z,28.50
2023-05-02T05:32:30.219Z,25.33
2023-05-02T05:37:36.197Z,27.67
2023-05-02T05:42:44.111Z,23.00
2023-05-02T05:47:57.087Z,23.00
2023-05-02T05:53:05.772Z,17.00
2023-05-02T05:58:11.725Z,16.50
2023-05-02T06:03:19.659Z,23.25
2023-05-02T06:08:25.248Z,19.50
2023-05-02T06:13:31.300Z,20.00
2023-05-02T06:18:36.752Z,16.75
2023-05-02T06:23:42.248Z,21.50
2023-05-02T06:28:47.275Z,17.67
2023-05-02T06:33:53.530Z,20.00
2023-05-02T06:38:58.484Z,24.75
2023-05-02T06:44:03.442Z,20.50
2023-05-02T06:49:08.312Z,18.00
2023-05-02T06:54:13.525Z,20.00
2023-05-02T06:59:18.373Z,17.50
2023-05-02T07:04:23.812Z,19.00
2023-05-02T07:09:29.861Z,14.50
2023-05-02T07:14:34.961Z,23.00
2023-05-02T07:19:40.184Z,15.67
2023-05-02T07:24:45.679Z,17.75
2023-05-02T07:29:50.773Z,17.00
2023-05-02T07:34:57.328Z,18.00
2023-05-02T07:40:02.898Z,17.00
2023-05-02T07:45:08.777Z,13.50
2023-05-02T07:50:13.811Z,23.25
2023-05-02T07:55:20.352Z,25.25
2023-05-02T08:00:25.368Z,17.67
2023-05-02T08:05:30.581Z,16.25
2023-05-02T08:10:35.757Z,23.25
2023-05-02T08:20:46.699Z,15.00
2023-05-02T08:30:56.077Z,19.75
2023-05-02T08:36:01.607Z,15.25
2023-05-02T08:41:15.315Z,15.67
2023-05-02T08:46:20.431Z,15.50
2023-05-02T08:51:26.333Z,21.67
2023-05-02T08:56:31.267Z,16.50
2023-05-02T09:01:39.208Z,16.67
2023-05-02T09:06:44.244Z,16.25
2023-05-02T09:11:53.648Z,16.25
2023-05-02T09:17:04.636Z,14.00
2023-05-02T09:22:09.767Z,18.00
2023-05-02T09:27:15.017Z,9.50
2023-05-02T09:32:20.201Z,12.75
2023-05-02T09:37:38.065Z,15.00
2023-05-02T09:42:43.218Z,15.50
2023-05-02T09:47:49.049Z,19.00
2023-05-02T09:53:07.912Z,17.00
2023-05-02T09:58:26.929Z,15.00
2023-05-02T10:03:33.568Z,12.50
2023-05-02T10:08:40.774Z,14.75
2023-05-02T10:13:46.837Z,12.00
2023-05-02T10:19:04.157Z,17.50
2023-05-02T10:24:09.937Z,16.00
2023-05-02T10:29:15.542Z,14.00
2023-05-02T10:34:21.293Z,16.67
2023-05-02T10:39:26.542Z,20.25
2023-05-02T10:44:42.271Z,14.33
2023-05-02T10:49:56.202Z,13.33
2023-05-02T10:55:20.486Z,16.50
2023-05-02T11:00:30.978Z,13.00
2023-05-02T11:06:13.108Z,12.50
2023-05-02T11:11:43.246Z,17.00
2023-05-02T11:17:06.305Z,17.00
2023-05-02T11:22:21.447Z,15.75
2023-05-02T11:27:33.317Z,19.33
2023-05-02T11:32:49.075Z,20.75
2023-05-02T11:38:03.416Z,27.75
2023-05-02T11:43:17.111Z,24.00
2023-05-02T11:48:24.373Z,29.75
2023-05-02T11:53:31.157Z,45.25
2023-05-02T11:58:36.905Z,20.67
2023-05-02T12:03:43.240Z,20.00
2023-05-02T12:08:50.342Z,19.50
2023-05-02T12:13:56.875Z,21.00
2023-05-02T12:19:02.521Z,25.50
2023-05-02T12:24:07.709Z,19.33
2023-05-02T12:29:13.872Z,24.25
2023-05-02T12:34:35.208Z,26.75
2023-05-02T12:39:41.981Z,29.00
2023-05-02T12:44:53.567Z,26.00
2023-05-02T12:50:01.275Z,17.33
2023-05-02T12:55:20.398Z,24.75
2023-05-02T13:00:26.366Z,24.25
2023-05-02T13:05:31.988Z,27.00
2023-05-02T13:10:37.626Z,26.00
2023-05-02T13:15:43.004Z,30.50
2023-05-02T13:25:55.103Z,24.50
2023-05-02T13:31:00.684Z,30.33
2023-05-02T13:36:06.546Z,23.75
2023-05-02T13:41:12.091Z,24.75
2023-05-02T13:46:17.441Z,24.25
2023-05-02T13:51:23.294Z,25.00
2023-05-02T13:56:30.288Z,25.50
2023-05-02T14:01:36.066Z,21.75
2023-05-02T14:06:41.930Z,23.00
2023-05-02T14:11:49.631Z,20.00
2023-05-02T14:16:58.110Z,23.25
2023-05-02T14:22:03.894Z,27.00
2023-05-02T14:27:14.154Z,22.75
2023-05-02T14:32:19.994Z,25.00
2023-05-02T14:37:25.889Z,16.00
2023-05-02T14:42:31.843Z,25.33
2023-05-02T14:47:38.157Z,25.50
2023-05-02T14:52:44.566Z,23.50
2023-05-02T14:57:50.398Z,21.00
2023-05-02T15:02:56.452Z,21.00
2023-05-02T15:13:10.105Z,27.50
2023-05-02T15:18:15.779Z,23.50
2023-05-02T15:23:21.309Z,21.25
2023-05-02T15:28:28.209Z,23.00
2023-05-02T15:33:33.801Z,29.33
2023-05-02T15:38:44.206Z,29.00
2023-05-02T15:43:50.226Z,28.75
2023-05-02T15:48:56.279Z,27.00
2023-05-02T15:54:01.919Z,25.00
2023-05-02T15:59:07.506Z,25.00
2023-05-02T16:04:13.251Z,20.67
2023-05-02T16:09:18.898Z,23.50
2023-05-02T16:19:31.804Z,23.33
2023-05-02T16:24:37.770Z,24.00
2023-05-02T16:29:43.375Z,20.00
2023-05-02T16:34:49.242Z,23.67
2023-05-02T16:39:54.779Z,21.00
2023-05-02T16:45:00.738Z,22.00
2023-05-02T16:50:07.323Z,24.33
2023-05-02T16:55:12.892Z,24.67
2023-05-02T17:00:19.136Z,24.33
2023-05-02T17:05:24.801Z,23.67
2023-05-02T17:10:30.730Z,23.00
2023-05-02T17:15:42.416Z,22.50
2023-05-02T17:20:48.978Z,20.33
2023-05-02T17:25:54.399Z,19.50
2023-05-02T17:31:00.595Z,17.00
2023-05-02T17:36:06.393Z,25.25
2023-05-02T17:41:12.248Z,23.75
2023-05-02T17:46:17.937Z,20.67
2023-05-02T17:51:23.676Z,24.75
2023-05-02T17:56:29.728Z,27.75
2023-05-02T18:01:36.064Z,24.75
2023-05-02T18:06:41.722Z,25.75
2023-05-02T18:11:48.556Z,29.50
2023-05-02T18:16:53.857Z,27.00
2023-05-02T18:21:59.878Z,21.00
2023-05-02T18:27:05.799Z,26.50
2023-05-02T18:32:11.629Z,22.75
2023-05-02T18:37:17.388Z,29.33
2023-05-02T18:42:22.867Z,23.67
2023-05-02T18:47:29.308Z,23.00
2023-05-02T18:52:35.226Z,25.25
2023-05-02T18:57:41.367Z,27.67
2023-05-02T19:02:47.525Z,27.67
2023-05-02T19:07:53.356Z,25.75
2023-05-02T19:12:58.904Z,29.00
2023-05-02T19:18:05.918Z,23.67
2023-05-02T19:23:19.548Z,29.00
2023-05-02T19:28:25.623Z,29.75
2023-05-02T19:33:30.864Z,34.25
2023-05-02T19:38:37.030Z,26.67
2023-05-02T19:43:42.843Z,31.25
2023-05-02T19:48:48.110Z,31.25
2023-05-02T19:59:00.809Z,28.00
2023-05-02T20:04:05.824Z,29.00
2023-05-02T20:14:15.423Z,29.67
2023-05-02T20:19:22.091Z,29.00
2023-05-02T20:24:27.847Z,30.25
2023-05-02T20:29:32.913Z,24.75
2023-05-02T20:34:38.094Z,29.25
2023-05-02T20:39:42.729Z,22.67
2023-05-02T20:44:48.931Z,24.50
2023-05-02T20:49:55.055Z,33.50
2023-05-02T20:55:02.769Z,32.00
2023-05-02T21:00:11.877Z,31.00
2023-05-02T21:05:17.094Z,34.00
2023-05-02T21:10:23.637Z,37.00
2023-05-02T21:15:28.792Z,29.00
2023-05-02T21:25:38.660Z,29.33
2023-05-02T21:30:43.775Z,29.33
2023-05-02T21:40:53.277Z,34.50
2023-05-02T21:45:58.395Z,36.00
2023-05-02T21:51:08.361Z,30.25
2023-05-02T21:56:13.540Z,28.67
2023-05-02T22:01:19.020Z,33.75
2023-05-02T22:06:24.063Z,27.00
2023-05-02T22:11:32.509Z,26.75
2023-05-02T22:16:38.840Z,29.00
2023-05-02T22:21:43.830Z,27.50
2023-05-02T22:26:52.022Z,25.50
2023-05-02T22:31:57.150Z,29.00
2023-05-02T22:37:02.084Z,23.67
2023-05-02T22:42:08.269Z,27.00
2023-05-02T22:47:13.711Z,28.00
2023-05-02T22:52:20.973Z,34.25
2023-05-02T22:57:26.428Z,30.00
2023-05-02T23:02:33.048Z,32.00
2023-05-02T23:07:38.351Z,24.50
2023-05-02T23:12:44.872Z,29.50
2023-05-02T23:17:50.484Z,26.75
2023-05-02T23:22:55.617Z,32.33
2023-05-02T23:28:00.474Z,32.00
2023-05-02T23:33:05.802Z,34.25
2023-05-02T23:38:12.299Z,34.50
2023-05-02T23:43:18.670Z,36.75
2023-05-02T23:48:23.554Z,34.25
2023-05-02T23:53:29.247Z,33.00
2023-05-02T23:58:34.152Z,30.67
